createdAt,value
2019-05-03T00:02:02.027Z,71.78
2019-05-03T00:04:31.604Z,71.67
2019-05-03T00:07:00.353Z,71.60
2019-05-03T00:09:28.557Z,71.60
2019-05-03T00:11:56.791Z,71.58
2019-05-03T00:14:25.653Z,71.52
2019-05-03T00:16:53.861Z,71.45
2019-05-03T00:19:22.113Z,71.46
2019-05-03T00:21:50.317Z,71.47
2019-05-03T00:24:18.521Z,71.60
2019-05-03T00:26:46.771Z,71.79
2019-05-03T00:29:15.377Z,71.92
2019-05-03T00:31:43.938Z,71.98
2019-05-03T00:34:13.901Z,72.06
2019-05-03T00:36:44.170Z,72.12
2019-05-03T00:39:14.014Z,72.05
2019-05-03T00:41:42.638Z,71.94
2019-05-03T00:44:11.534Z,71.88
2019-05-03T00:46:39.850Z,71.66
2019-05-03T00:49:08.079Z,71.64
2019-05-03T00:51:36.693Z,71.55
2019-05-03T00:54:04.907Z,71.44
2019-05-03T00:56:33.427Z,71.43
2019-05-03T00:59:02.232Z,71.44
2019-05-03T01:01:32.061Z,71.56
2019-05-03T01:04:01.799Z,71.57
2019-05-03T01:06:31.829Z,71.62
2019-05-03T01:09:00.262Z,71.63
2019-05-03T01:11:28.560Z,71.74
2019-05-03T01:13:56.753Z,71.87
2019-05-03T01:16:25.880Z,72.04
2019-05-03T01:18:54.078Z,72.20
2019-05-03T01:21:22.723Z,72.33
2019-05-03T01:23:52.550Z,72.38
2019-05-03T01:26:22.708Z,72.50
2019-05-03T01:28:52.203Z,72.60
2019-05-03T01:31:22.846Z,72.76
2019-05-03T01:33:51.629Z,72.84
2019-05-03T01:36:20.113Z,73.04
2019-05-03T01:38:48.356Z,73.09
2019-05-03T01:41:16.574Z,73.24
2019-05-03T01:43:45.145Z,73.32
2019-05-03T01:46:13.732Z,73.43
2019-05-03T01:52:27.133Z,73.67
2019-05-03T01:54:55.633Z,73.86
2019-05-03T01:57:23.883Z,73.89
2019-05-03T01:59:52.216Z,73.96
2019-05-03T02:02:24.560Z,73.96
2019-05-03T02:05:12.001Z,73.87
2019-05-03T02:07:42.161Z,73.82
2019-05-03T02:10:11.924Z,73.80
2019-05-03T02:12:41.712Z,73.89
2019-05-03T02:15:11.822Z,73.99
2019-05-03T02:17:39.987Z,74.04
2019-05-03T02:20:08.195Z,74.09
2019-05-03T02:22:36.408Z,74.16
2019-05-03T02:25:06.264Z,74.28
2019-05-03T02:27:34.502Z,74.26
2019-05-03T02:30:03.278Z,74.32
2019-05-03T02:32:33.249Z,74.27
2019-05-03T02:35:02.796Z,74.25
2019-05-03T02:37:33.042Z,74.12
2019-05-03T02:40:04.207Z,74.05
2019-05-03T02:42:31.057Z,74.29
2019-05-03T02:45:00.295Z,74.63
2019-05-03T02:47:47.147Z,75.00
2019-05-03T02:50:17.166Z,75.30
2019-05-03T02:52:45.725Z,75.43
2019-05-03T02:55:16.005Z,75.56
2019-05-03T02:57:46.530Z,75.84
2019-05-03T03:00:16.318Z,75.90
2019-05-03T03:02:45.662Z,75.97
2019-05-03T03:05:16.657Z,75.92
2019-05-03T03:07:46.037Z,75.79
2019-05-03T03:10:16.177Z,75.89
2019-05-03T03:12:46.461Z,76.06
2019-05-03T03:15:16.218Z,76.08
2019-05-03T03:17:45.724Z,76.18
2019-05-03T03:20:16.172Z,76.14
2019-05-03T03:22:45.597Z,75.98
2019-05-03T03:25:17.584Z,75.89
2019-05-03T03:27:45.716Z,75.78
2019-05-03T03:30:31.998Z,75.60
2019-05-03T03:33:02.872Z,75.60
2019-05-03T03:35:32.355Z,75.43
2019-05-03T03:38:00.580Z,75.25
2019-05-03T03:40:29.260Z,75.11
2019-05-03T03:42:57.479Z,74.95
2019-05-03T03:45:25.721Z,74.76
2019-05-03T03:47:56.165Z,74.66
2019-05-03T03:50:25.937Z,74.66
2019-05-03T03:52:55.839Z,74.62
2019-05-03T03:55:26.456Z,74.61
2019-05-03T03:57:55.730Z,74.69
2019-05-03T04:00:25.847Z,74.66
2019-05-03T04:02:55.302Z,74.67
2019-05-03T04:05:25.367Z,74.58
2019-05-03T04:07:55.884Z,74.50
2019-05-03T04:10:26.028Z,74.39
2019-05-03T04:12:55.906Z,74.19
2019-05-03T04:15:41.709Z,74.00
2019-05-03T04:18:16.334Z,73.63
2019-05-03T04:20:45.856Z,71.65
2019-05-03T04:23:16.210Z,70.15
2019-05-03T04:25:45.051Z,68.01
2019-05-03T04:28:15.970Z,66.16
2019-05-03T04:30:45.780Z,64.76
2019-05-03T04:33:15.848Z,63.19
2019-05-03T04:35:43.389Z,61.73
2019-05-03T04:38:16.038Z,60.59
2019-05-03T04:40:45.407Z,59.56
2019-05-03T04:43:16.271Z,58.31
2019-05-03T04:45:45.626Z,57.45
2019-05-03T04:48:16.062Z,55.62
2019-05-03T04:50:45.674Z,54.72
2019-05-03T04:53:16.162Z,53.57
2019-05-03T04:55:46.627Z,52.93
2019-05-03T04:58:16.238Z,51.98
2019-05-03T05:00:46.521Z,51.44
2019-05-03T05:03:15.147Z,50.33
2019-05-03T05:05:45.281Z,49.21
2019-05-03T05:08:16.001Z,47.35
2019-05-03T05:10:45.433Z,46.82
2019-05-03T05:13:15.714Z,45.88
2019-05-03T05:15:45.950Z,44.74
2019-05-03T05:18:17.957Z,44.26
2019-05-03T05:20:50.491Z,43.83
2019-05-03T05:23:18.738Z,43.53
2019-05-03T05:25:51.509Z,43.15
2019-05-03T05:28:36.366Z,42.39
2019-05-03T05:31:04.919Z,42.17
2019-05-03T05:33:35.239Z,40.70
2019-05-03T05:36:04.829Z,40.68
2019-05-03T05:38:34.663Z,41.70
2019-05-03T05:41:05.145Z,42.27
2019-05-03T05:43:33.250Z,42.09
2019-05-03T05:46:02.333Z,41.63
2019-05-03T05:48:32.200Z,41.23
2019-05-03T05:51:00.479Z,42.38
2019-05-03T05:53:28.793Z,41.47
2019-05-03T05:55:58.664Z,41.08
2019-05-03T05:58:31.393Z,40.10
2019-05-03T06:01:05.455Z,39.65
2019-05-03T06:03:34.439Z,39.40
2019-05-03T06:06:05.361Z,38.79
2019-05-03T06:08:35.489Z,38.80
2019-05-03T06:11:05.459Z,39.87
2019-05-03T06:13:45.728Z,41.23
2019-05-03T06:16:15.861Z,42.15
2019-05-03T06:18:54.592Z,42.87
2019-05-03T06:21:36.582Z,43.53
2019-05-03T06:24:12.347Z,43.92
2019-05-03T06:26:45.026Z,43.98
2019-05-03T06:29:14.972Z,44.32
2019-05-03T06:32:01.445Z,44.25
2019-05-03T06:34:29.829Z,44.03
2019-05-03T06:37:14.914Z,43.65
2019-05-03T06:39:45.246Z,43.47
2019-05-03T06:42:17.541Z,43.01
2019-05-03T06:44:45.365Z,44.20
2019-05-03T06:47:14.869Z,45.32
2019-05-03T06:49:44.989Z,45.41
2019-05-03T06:52:14.707Z,44.03
2019-05-03T06:54:44.883Z,43.72
2019-05-03T06:57:15.225Z,43.69
2019-05-03T06:59:50.793Z,44.20
2019-05-03T07:02:20.622Z,44.20
2019-05-03T07:04:50.486Z,45.29
2019-05-03T07:07:36.778Z,45.51
2019-05-03T07:10:08.430Z,45.73
2019-05-03T07:12:54.751Z,46.02
2019-05-03T07:15:24.985Z,46.26
2019-05-03T07:17:55.414Z,45.97
2019-05-03T07:20:25.294Z,46.06
2019-05-03T07:22:55.760Z,45.30
2019-05-03T07:25:25.603Z,44.70
2019-05-03T07:27:55.614Z,44.37
2019-05-03T07:30:24.911Z,44.71
2019-05-03T07:32:54.925Z,44.49
2019-05-03T07:35:25.002Z,44.56
2019-05-03T07:37:55.176Z,44.12
2019-05-03T07:40:25.337Z,43.68
2019-05-03T07:42:55.483Z,43.38
2019-05-03T07:45:25.513Z,43.04
2019-05-03T07:47:55.767Z,43.68
2019-05-03T07:50:25.806Z,44.39
2019-05-03T07:52:55.536Z,45.04
2019-05-03T07:55:41.717Z,45.40
2019-05-03T07:58:11.848Z,45.67
2019-05-03T08:00:40.093Z,46.20
2019-05-03T08:03:08.301Z,48.40
2019-05-03T08:05:36.882Z,50.17
2019-05-03T08:08:05.115Z,51.86
2019-05-03T08:10:34.501Z,52.52
2019-05-03T08:13:04.702Z,52.68
2019-05-03T08:15:34.805Z,54.22
2019-05-03T08:18:04.865Z,55.88
2019-05-03T08:20:35.026Z,56.42
2019-05-03T08:23:05.335Z,56.36
2019-05-03T08:25:35.304Z,57.10
2019-05-03T08:28:05.310Z,57.52
2019-05-03T08:30:51.631Z,57.73
2019-05-03T08:33:24.957Z,57.46
2019-05-03T08:35:55.502Z,56.29
2019-05-03T08:38:25.658Z,54.55
2019-05-03T08:40:56.199Z,54.13
2019-05-03T08:43:25.524Z,54.30
2019-05-03T08:45:55.337Z,53.30
2019-05-03T08:48:24.979Z,51.45
2019-05-03T08:50:55.428Z,48.87
2019-05-03T08:53:25.683Z,47.94
2019-05-03T08:55:55.279Z,48.42
2019-05-03T08:58:25.417Z,47.90
2019-05-03T09:00:54.666Z,47.06
2019-05-03T09:03:24.878Z,46.74
2019-05-03T09:05:56.192Z,46.28
2019-05-03T09:08:24.915Z,44.50
2019-05-03T09:10:55.012Z,43.37
2019-05-03T09:13:25.137Z,43.38
2019-05-03T09:15:55.291Z,43.83
2019-05-03T09:18:25.856Z,43.74
2019-05-03T09:20:55.507Z,46.85
2019-05-03T09:23:25.965Z,51.34
2019-05-03T09:25:54.754Z,54.62
2019-05-03T09:28:23.183Z,56.09
2019-05-03T09:30:51.388Z,56.46
2019-05-03T09:33:19.683Z,55.80
2019-05-03T09:35:47.925Z,55.63
2019-05-03T09:38:16.120Z,54.98
2019-05-03T09:40:45.445Z,54.37
2019-05-03T09:43:15.060Z,54.00
2019-05-03T09:45:45.168Z,52.83
2019-05-03T09:48:15.053Z,52.55
2019-05-03T09:50:45.225Z,51.90
2019-05-03T09:53:15.193Z,50.85
2019-05-03T09:55:44.814Z,50.08
2019-05-03T09:58:15.155Z,49.49
2019-05-03T10:00:44.626Z,48.62
2019-05-03T10:03:12.915Z,48.18
2019-05-03T10:05:41.201Z,46.14
2019-05-03T10:08:09.417Z,44.87
2019-05-03T10:10:44.745Z,44.50
2019-05-03T10:13:21.626Z,44.60
2019-05-03T10:15:44.996Z,47.39
2019-05-03T10:18:14.858Z,50.70
2019-05-03T10:20:44.705Z,53.06
2019-05-03T10:23:14.951Z,53.43
2019-05-03T10:25:43.141Z,53.41
2019-05-03T10:28:11.375Z,53.11
2019-05-03T10:30:39.594Z,52.02
2019-05-03T10:33:15.671Z,50.35
2019-05-03T10:35:45.113Z,49.28
2019-05-03T10:38:15.137Z,47.73
2019-05-03T10:40:45.230Z,46.87
2019-05-03T10:43:13.314Z,45.64
2019-05-03T10:45:41.523Z,43.09
2019-05-03T10:48:09.734Z,42.34
2019-05-03T10:50:37.935Z,40.78
2019-05-03T10:53:10.438Z,40.39
2019-05-03T10:55:38.695Z,40.75
2019-05-03T10:58:16.146Z,39.22
2019-05-03T11:00:52.977Z,39.77
2019-05-03T11:03:17.777Z,39.62
2019-05-03T11:05:46.004Z,39.86
2019-05-03T11:08:14.622Z,39.73
2019-05-03T11:10:42.913Z,40.08
2019-05-03T11:13:11.136Z,38.69
2019-05-03T11:15:39.333Z,38.70
2019-05-03T11:18:07.539Z,38.53
2019-05-03T11:20:36.615Z,38.68
2019-05-03T11:23:06.204Z,39.51
2019-05-03T11:25:34.871Z,39.68
2019-05-03T11:28:04.947Z,40.39
2019-05-03T11:30:35.123Z,40.86
2019-05-03T11:33:04.809Z,40.27
2019-05-03T11:35:41.084Z,40.08
2019-05-03T11:38:15.065Z,39.89
2019-05-03T11:40:45.532Z,39.83
2019-05-03T11:43:15.243Z,39.70
2019-05-03T11:45:44.848Z,38.55
2019-05-03T11:48:14.820Z,39.21
2019-05-03T11:50:45.344Z,39.30
2019-05-03T11:53:14.546Z,39.54
2019-05-03T11:55:46.115Z,40.34
2019-05-03T11:58:20.303Z,42.45
2019-05-03T12:00:50.501Z,43.58
2019-05-03T12:03:26.168Z,43.74
2019-05-03T12:05:56.360Z,43.11
2019-05-03T12:08:25.281Z,42.94
2019-05-03T12:10:58.542Z,42.95
2019-05-03T12:13:25.285Z,42.09
2019-05-03T12:15:55.236Z,42.18
2019-05-03T12:18:25.157Z,42.03
2019-05-03T12:20:56.780Z,42.08
2019-05-03T12:23:25.745Z,42.33
2019-05-03T12:25:55.762Z,42.14
2019-05-03T12:28:25.723Z,41.59
2019-05-03T12:30:54.468Z,41.13
2019-05-03T12:33:22.948Z,41.27
2019-05-03T12:35:51.167Z,41.96
2019-05-03T12:38:19.369Z,42.18
2019-05-03T12:43:33.492Z,41.94
2019-05-03T12:46:01.713Z,40.67
2019-05-03T12:48:30.622Z,41.09
2019-05-03T12:50:59.048Z,40.62
2019-05-03T12:53:27.653Z,39.81
2019-05-03T12:55:55.846Z,38.99
2019-05-03T12:58:26.119Z,38.90
2019-05-03T13:00:55.989Z,39.04
2019-05-03T13:03:32.077Z,39.46
2019-05-03T13:06:00.559Z,39.57
2019-05-03T13:08:35.200Z,39.31
2019-05-03T13:11:05.308Z,39.31
2019-05-03T13:13:35.930Z,39.26
2019-05-03T13:16:04.637Z,39.49
2019-05-03T13:18:35.109Z,39.96
2019-05-03T13:21:05.368Z,40.39
2019-05-03T13:23:35.379Z,41.20
2019-05-03T13:26:05.276Z,42.16
2019-05-03T13:28:33.099Z,42.74
2019-05-03T13:31:01.308Z,42.51
2019-05-03T13:33:29.512Z,42.43
2019-05-03T13:35:57.750Z,42.77
2019-05-03T13:38:26.271Z,42.95
2019-05-03T13:40:54.496Z,42.64
2019-05-03T13:43:22.709Z,42.42
2019-05-03T13:45:50.934Z,42.47
2019-05-03T13:48:20.916Z,43.29
2019-05-03T13:50:49.068Z,43.76
2019-05-03T13:53:17.278Z,44.39
2019-05-03T13:55:46.363Z,45.05
2019-05-03T13:58:14.838Z,45.71
2019-05-03T14:00:45.169Z,45.69
2019-05-03T14:03:15.271Z,46.18
2019-05-03T14:05:44.571Z,46.04
2019-05-03T14:08:15.384Z,45.56
2019-05-03T14:10:45.239Z,45.55
2019-05-03T14:13:12.815Z,45.12
2019-05-03T14:15:41.033Z,44.35
2019-05-03T14:18:09.568Z,44.16
2019-05-03T14:20:39.401Z,43.03
2019-05-03T14:23:07.619Z,42.57
2019-05-03T14:25:35.830Z,42.64
2019-05-03T14:28:05.453Z,43.05
2019-05-03T14:30:34.654Z,43.44
2019-05-03T14:33:05.059Z,43.68
2019-05-03T14:35:34.636Z,43.37
2019-05-03T14:38:05.750Z,43.58
2019-05-03T14:40:33.428Z,43.76
2019-05-03T14:43:01.674Z,43.76
2019-05-03T14:45:29.913Z,43.72
2019-05-03T14:47:58.144Z,43.59
2019-05-03T14:50:26.374Z,43.38
2019-05-03T14:52:57.110Z,43.38
2019-05-03T14:55:28.744Z,43.24
2019-05-03T14:57:58.598Z,42.90
2019-05-03T15:00:37.186Z,42.29
2019-05-03T15:03:09.994Z,42.19
2019-05-03T15:05:38.221Z,41.77
2019-05-03T15:08:06.453Z,41.16
2019-05-03T15:10:35.211Z,41.50
2019-05-03T15:13:05.214Z,41.36
2019-05-03T15:15:34.676Z,40.91
2019-05-03T15:18:02.994Z,41.27
2019-05-03T15:20:31.292Z,41.41
2019-05-03T15:22:59.572Z,39.68
2019-05-03T15:25:27.816Z,36.84
2019-05-03T15:27:56.317Z,38.42
2019-05-03T15:30:25.679Z,36.14
2019-05-03T15:33:00.231Z,36.48
2019-05-03T15:35:25.873Z,37.98
2019-05-03T15:37:55.815Z,36.68
2019-05-03T15:40:25.106Z,36.71
2019-05-03T15:42:55.038Z,37.14
2019-05-03T15:45:44.992Z,37.26
2019-05-03T15:48:18.198Z,36.48
2019-05-03T15:50:46.455Z,36.72
2019-05-03T15:53:15.611Z,37.27
2019-05-03T15:55:44.124Z,37.63
2019-05-03T15:58:12.675Z,38.34
2019-05-03T16:00:40.963Z,38.61
2019-05-03T16:03:11.306Z,38.62
2019-05-03T16:05:39.179Z,38.99
2019-05-03T16:08:07.418Z,38.80
2019-05-03T16:10:36.465Z,38.58
2019-05-03T16:13:04.903Z,38.58
2019-05-03T16:15:35.062Z,38.92
2019-05-03T16:18:05.163Z,38.74
2019-05-03T16:20:37.807Z,38.78
2019-05-03T16:23:04.960Z,39.25
2019-05-03T16:25:33.276Z,38.77
2019-05-03T16:28:04.781Z,38.39
2019-05-03T16:30:45.468Z,38.60
2019-05-03T16:33:26.578Z,38.73
2019-05-03T16:35:44.518Z,39.06
2019-05-03T16:38:13.209Z,39.55
2019-05-03T16:40:41.433Z,39.93
2019-05-03T16:43:10.025Z,40.33
2019-05-03T16:45:38.271Z,40.72
2019-05-03T16:48:06.475Z,41.34
2019-05-03T16:50:34.718Z,41.66
2019-05-03T16:53:02.953Z,42.25
2019-05-03T16:55:31.184Z,42.57
2019-05-03T16:57:59.414Z,42.99
2019-05-03T17:00:27.896Z,43.23
2019-05-03T17:02:56.448Z,43.47
2019-05-03T17:05:26.337Z,43.56
2019-05-03T17:07:56.195Z,43.60
2019-05-03T17:10:31.819Z,43.52
2019-05-03T17:13:00.385Z,43.81
2019-05-03T17:15:29.460Z,43.89
2019-05-03T17:17:57.669Z,44.13
2019-05-03T17:20:25.867Z,44.28
2019-05-03T17:22:55.569Z,44.72
2019-05-03T17:25:24.529Z,45.39
2019-05-03T17:27:54.284Z,45.85
2019-05-03T17:30:32.728Z,46.31
2019-05-03T17:32:52.570Z,48.29
2019-05-03T17:35:20.769Z,48.29
2019-05-03T17:37:49.000Z,49.51
2019-05-03T17:40:21.819Z,50.28
2019-05-03T17:43:00.801Z,51.58
2019-05-03T17:45:35.127Z,52.21
2019-05-03T17:48:04.512Z,53.00
2019-05-03T17:50:34.670Z,53.90
2019-05-03T17:53:19.686Z,54.15
2019-05-03T17:55:49.527Z,54.89
2019-05-03T17:58:36.095Z,55.08
2019-05-03T18:01:12.302Z,55.81
2019-05-03T18:03:42.211Z,56.30
2019-05-03T18:06:12.334Z,56.58
2019-05-03T18:08:45.008Z,57.32
2019-05-03T18:11:17.425Z,58.29
2019-05-03T18:13:45.637Z,58.77
2019-05-03T18:16:13.894Z,58.80
2019-05-03T18:18:42.139Z,58.34
2019-05-03T18:21:10.689Z,57.97
2019-05-03T18:23:38.969Z,57.81
2019-05-03T18:26:07.201Z,57.83
2019-05-03T18:28:35.720Z,57.61
2019-05-03T18:31:05.368Z,57.29
2019-05-03T18:33:34.226Z,57.08
2019-05-03T18:36:02.429Z,57.26
2019-05-03T18:38:32.272Z,57.15
2019-05-03T18:41:00.500Z,56.88
2019-05-03T18:43:34.565Z,57.07
2019-05-03T18:46:20.801Z,57.07
2019-05-03T18:48:49.004Z,57.51
2019-05-03T18:51:17.479Z,57.51
2019-05-03T18:53:45.691Z,57.58
2019-05-03T18:56:14.770Z,57.73
2019-05-03T18:58:44.877Z,57.85
2019-05-03T19:01:14.912Z,57.88
2019-05-03T19:03:45.191Z,58.02
2019-05-03T19:06:13.646Z,59.52
2019-05-03T19:08:44.762Z,61.74
2019-05-03T19:11:31.142Z,63.88
2019-05-03T19:14:00.950Z,65.85
2019-05-03T19:16:37.092Z,66.58
2019-05-03T19:19:06.489Z,67.59
2019-05-03T19:21:35.071Z,67.80
2019-05-03T19:24:04.804Z,68.21
2019-05-03T19:26:35.228Z,68.52
2019-05-03T19:29:04.436Z,69.12
2019-05-03T19:31:32.764Z,69.76
2019-05-03T19:34:01.101Z,69.79
2019-05-03T19:36:29.639Z,69.77
2019-05-03T19:38:57.896Z,70.28
2019-05-03T19:41:26.072Z,70.73
2019-05-03T19:43:55.050Z,70.64
2019-05-03T19:46:24.808Z,70.45
2019-05-03T19:48:54.674Z,70.26
2019-05-03T19:51:22.927Z,70.08
2019-05-03T19:53:54.903Z,70.18
2019-05-03T19:56:22.751Z,70.12
2019-05-03T19:58:52.425Z,70.24
2019-05-03T20:01:28.542Z,70.04
2019-05-03T20:03:58.392Z,70.16
2019-05-03T20:06:34.581Z,70.94
2019-05-03T20:09:15.154Z,70.77
2019-05-03T20:11:43.396Z,71.55
2019-05-03T20:14:11.589Z,72.15
2019-05-03T20:16:39.882Z,72.28
2019-05-03T20:19:17.756Z,72.54
2019-05-03T20:21:38.025Z,72.61
2019-05-03T20:24:06.530Z,72.13
2019-05-03T20:26:34.930Z,71.45
2019-05-03T20:29:03.575Z,71.29
2019-05-03T20:31:31.799Z,71.10
2019-05-03T20:34:00.019Z,70.76
2019-05-03T20:36:28.607Z,70.91
2019-05-03T20:38:56.907Z,70.97
2019-05-03T20:41:27.404Z,71.16
2019-05-03T20:44:02.454Z,71.38
2019-05-03T20:46:32.374Z,71.61
2019-05-03T20:49:05.051Z,71.58
2019-05-03T20:51:34.539Z,71.23
2019-05-03T20:54:04.850Z,71.14
2019-05-03T20:56:33.584Z,71.01
2019-05-03T20:59:02.135Z,71.17
2019-05-03T21:01:30.360Z,71.41
2019-05-03T21:03:58.574Z,71.79
2019-05-03T21:06:35.189Z,72.13
2019-05-03T21:08:56.729Z,72.58
2019-05-03T21:11:25.226Z,72.68
2019-05-03T21:13:53.498Z,73.10
2019-05-03T21:16:34.435Z,73.40
2019-05-03T21:19:10.060Z,73.71
2019-05-03T21:21:40.197Z,74.52
2019-05-03T21:24:12.858Z,74.89
2019-05-03T21:26:41.462Z,74.80
2019-05-03T21:29:09.926Z,75.04
2019-05-03T21:31:38.280Z,75.29
2019-05-03T21:34:06.475Z,75.01
2019-05-03T21:36:34.946Z,74.79
2019-05-03T21:39:05.316Z,74.99
2019-05-03T21:41:35.333Z,74.71
2019-05-03T21:44:04.841Z,74.70
2019-05-03T21:46:41.018Z,74.88
2019-05-03T21:49:10.777Z,75.24
2019-05-03T21:51:39.355Z,75.27
2019-05-03T21:54:07.572Z,75.39
2019-05-03T21:56:35.855Z,75.45
2019-05-03T21:59:05.547Z,75.71
2019-05-03T22:01:37.523Z,75.95
2019-05-03T22:04:05.782Z,76.31
2019-05-03T22:06:35.110Z,76.52
2019-05-03T22:09:04.770Z,76.79
2019-05-03T22:11:32.989Z,77.05
2019-05-03T22:14:04.545Z,77.10
2019-05-03T22:16:51.055Z,77.20
2019-05-03T22:19:19.626Z,78.10
2019-05-03T22:22:05.655Z,77.80
2019-05-03T22:24:35.606Z,77.89
2019-05-03T22:27:06.979Z,78.16
2019-05-03T22:29:35.763Z,78.27
2019-05-03T22:32:05.282Z,78.62
2019-05-03T22:34:34.831Z,78.22
2019-05-03T22:37:03.201Z,78.31
2019-05-03T22:39:31.430Z,78.06
2019-05-03T22:41:59.647Z,77.89
2019-05-03T22:44:27.849Z,77.66
2019-05-03T22:46:56.071Z,78.01
2019-05-03T22:49:25.911Z,78.42
2019-05-03T22:51:54.473Z,78.59
2019-05-03T22:54:24.457Z,78.89
2019-05-03T22:56:52.562Z,78.89
2019-05-03T22:59:20.759Z,79.42
2019-05-03T23:01:48.969Z,79.18
2019-05-03T23:04:17.333Z,79.42
2019-05-03T23:06:47.021Z,79.70
2019-05-03T23:09:15.985Z,79.75
2019-05-03T23:11:44.912Z,79.69
2019-05-03T23:14:15.158Z,79.72
2019-05-03T23:16:44.877Z,79.70
2019-05-03T23:19:14.998Z,79.63
2019-05-03T23:21:45.308Z,79.67
2019-05-03T23:24:15.359Z,79.62
2019-05-03T23:26:45.214Z,79.64
2019-05-03T23:29:13.477Z,80.02
2019-05-03T23:31:41.953Z,79.84
2019-05-03T23:34:10.172Z,79.82
2019-05-03T23:36:38.378Z,79.68
2019-05-03T23:39:08.243Z,79.55
2019-05-03T23:41:36.734Z,79.57
2019-05-03T23:44:05.817Z,79.56
2019-05-03T23:46:35.915Z,79.75
2019-05-03T23:49:04.126Z,79.71
2019-05-03T23:51:46.333Z,79.82
2019-05-03T23:54:15.055Z,79.87
2019-05-03T23:56:45.675Z,79.88
2019-05-03T23:59:14.842Z,79.90
